CYHZ/YHZ METAR and TAF weather

Enter ICAO airport designator
Station Type Date Time Source
CYHZ METAR 2018/04/19 13:00 UTC NOAA

CYHZ 191300Z 23006KT 15SM OVC060 04/03 A2971 RMK SC8 SLP065


Station Type Date Time Source
CYHZ Decoded METAR 2018/04/19 13:00 UTC NOAA

Halifax International Airport , Canada (CYHZ) 44-53N 063-30W
Apr 19, 2018 - 09:00 AM EDT / 2018.04.19 1300 UTC
Wind: from the SW (230 degrees) at 7 MPH (6 KT):0
Visibility: 15 mile(s):0
Sky conditions: overcast
Temperature: 39 F (4 C)
Dew Point: 37 F (3 C)
Relative Humidity: 93%
Pressure (altimeter): 29.71 in. Hg (1006 hPa)
ob: CYHZ 191300Z 23006KT 15SM OVC060 04/03 A2971 RMK SC8 SLP065
cycle: 13

Station Type Date Time Source
CYHZ TAF 2018/04/19 12:42 UTC NOAA

TAF CYHZ 191138Z 1912/2012 21010KT P6SM BKN050 OVC080
FM191500 22010KT P6SM BKN030 OVC080
TEMPO 1915/1918 P6SM -SHRA BKN020 OVC080
FM191800 20012KT P6SM BKN020 OVC060
TEMPO 1918/1920 5SM -RA BR OVC008
FM192000 11010KT 2SM -RA BR OVC004
FM192200 09010KT 1/2SM -RA FG VV003
BECMG 2004/2006 01015KT
FM200800 01015KT 3SM -RA BR OVC005 PROB30 2008/2012 1SM -RA BR OVC003
RMK NXT FCST BY 191500Z


Example: see airport list